»·PEaware :: AAL225 KLAS-KSEA

AAL225 :: KLAS-KSEA

FLIGHT INFORMATION

Flight Status: Arrived
Operator:
American Airlines
More flights by this operator :: More flights under this callsign
Pilot: Michael R. (16974)
Aircraft: BOEING 737-800
(B738)
More flights by this aircraft type
Origin: KLAS McCarran Intl
United States
Destination: KSEA Seattle-Tacoma Intl
United States
More flights between these airports :: More routes between these airports
Route: SHEAD1 OAL LOMIA LKV HAWKZ6
File this flight plan on PilotEdge
Remarks:
Altitude:
(Current/Filed)
34,000ft
Speed:
(Current/Filed)
450kts
Departed: 13-Mar-18 06:55 PM
Arrived: 13-Mar-18 08:59 PM
Distance/Time
Traveled:
752nm/2:04
Distance/Time
To Go:
Arrived

Flight Plot

Page will automatically refresh every two minutes.

Flight plan parsing failed; only flown route is shown


Map Options




Map Legend


Flown Route
Filed Route
Departure Airport
Arrival Airport
Navaid (VOR, NDB)
Fix

Horizontal Profiles

Position Reports

Time Latitude Longitude Heading Altitude Ground
Speed
13-Mar-18 17:29 36.082762 -115.150429 269 2102ft 0kts
13-Mar-18 17:30 36.082762 -115.150429 269 2102ft 0kts
13-Mar-18 17:31 36.082762 -115.150429 269 2102ft 0kts
13-Mar-18 17:32 36.082762 -115.150429 269 2102ft 0kts
13-Mar-18 17:33 36.082762 -115.150429 269 2102ft 0kts
13-Mar-18 17:34 36.082762 -115.150429 269 2102ft 0kts
13-Mar-18 17:35 36.082762 -115.150429 269 2102ft 0kts
13-Mar-18 17:36 36.082762 -115.150429 269 2102ft 0kts
13-Mar-18 17:37 36.082762 -115.150429 269 2102ft 0kts
13-Mar-18 17:38 36.082762 -115.150429 269 2102ft 0kts
13-Mar-18 17:39 36.082762 -115.150429 269 2102ft 0kts
13-Mar-18 17:40 36.082762 -115.150429 269 2102ft 0kts
13-Mar-18 17:41 36.082762 -115.150429 269 2102ft 0kts
13-Mar-18 17:42 36.082762 -115.150429 269 2102ft 0kts
13-Mar-18 17:43 36.082762 -115.150429 269 2102ft 0kts
13-Mar-18 17:44 36.082762 -115.150429 269 2102ft 0kts
13-Mar-18 17:45 36.082762 -115.150429 269 2102ft 0kts
13-Mar-18 17:46 36.082762 -115.150429 269 2102ft 0kts
13-Mar-18 17:47 36.082762 -115.150429 269 2102ft 0kts
13-Mar-18 17:48 36.082762 -115.150429 269 2102ft 0kts
13-Mar-18 17:49 36.082762 -115.150429 269 2102ft 0kts
13-Mar-18 17:50 36.082762 -115.150429 269 2102ft 0kts
13-Mar-18 17:51 36.082762 -115.150429 269 2102ft 0kts
13-Mar-18 17:52 36.082762 -115.150429 269 2102ft 0kts
13-Mar-18 17:53 36.082762 -115.150429 269 2102ft 0kts
13-Mar-18 17:54 36.082762 -115.150429 269 2102ft 0kts
13-Mar-18 17:55 36.082762 -115.150429 269 2102ft 0kts
13-Mar-18 17:56 36.082762 -115.150429 269 2102ft 0kts
13-Mar-18 17:57 36.082762 -115.150429 269 2102ft 0kts
13-Mar-18 17:58 36.082762 -115.150429 269 2102ft 0kts
13-Mar-18 17:59 36.082762 -115.150429 269 2102ft 0kts
13-Mar-18 18:00 36.082762 -115.150429 269 2102ft 0kts
13-Mar-18 18:01 36.082762 -115.150429 269 2102ft 0kts
13-Mar-18 18:02 36.082762 -115.150429 269 2102ft 0kts
13-Mar-18 18:03 36.082762 -115.150429 269 2102ft 0kts
13-Mar-18 18:04 36.082762 -115.150429 269 2102ft 0kts
13-Mar-18 18:05 36.082762 -115.150429 269 2102ft 0kts
13-Mar-18 18:06 36.082762 -115.150429 269 2102ft 0kts
13-Mar-18 18:07 36.082762 -115.150429 269 2102ft 0kts
13-Mar-18 18:08 36.082762 -115.150429 269 2102ft 0kts
13-Mar-18 18:09 36.082762 -115.150429 269 2102ft 0kts
13-Mar-18 18:10 36.082762 -115.150429 269 2102ft 0kts
13-Mar-18 18:11 36.082762 -115.150429 269 2102ft 0kts
13-Mar-18 18:12 36.082762 -115.150429 269 2102ft 0kts
13-Mar-18 18:13 36.082762 -115.150429 269 2102ft 0kts
13-Mar-18 18:14 36.082762 -115.150429 269 2102ft 0kts
13-Mar-18 18:15 36.082762 -115.150429 269 2102ft 0kts
13-Mar-18 18:16 36.082762 -115.150429 269 2102ft 0kts
13-Mar-18 18:17 36.082762 -115.150429 269 2102ft 0kts
13-Mar-18 18:18 36.082762 -115.150429 269 2102ft 0kts
13-Mar-18 18:19 36.082762 -115.150429 269 2102ft 0kts
13-Mar-18 18:20 36.082762 -115.150429 269 2102ft 0kts
13-Mar-18 18:21 36.082762 -115.150429 269 2102ft 0kts
13-Mar-18 18:22 36.082762 -115.150429 269 2102ft 0kts
13-Mar-18 18:23 36.082762 -115.150429 269 2102ft 0kts
13-Mar-18 18:24 36.082762 -115.150429 269 2102ft 0kts
13-Mar-18 18:25 36.082762 -115.150429 269 2102ft 0kts
13-Mar-18 18:26 36.082762 -115.150429 269 2102ft 0kts
13-Mar-18 18:27 36.082762 -115.150429 269 2102ft 0kts
13-Mar-18 18:28 36.082762 -115.150429 269 2102ft 0kts
13-Mar-18 18:29 36.082762 -115.150429 269 2102ft 0kts
13-Mar-18 18:30 36.082762 -115.150429 269 2102ft 0kts
13-Mar-18 18:31 36.082762 -115.150429 269 2102ft 0kts
13-Mar-18 18:32 36.082762 -115.150429 269 2102ft 0kts
13-Mar-18 18:33 36.082762 -115.150429 269 2102ft 0kts
13-Mar-18 18:34 36.082762 -115.150429 269 2102ft 0kts
13-Mar-18 18:35 36.082762 -115.150429 269 2102ft 0kts
13-Mar-18 18:36 36.082762 -115.150429 269 2102ft 0kts
13-Mar-18 18:37 36.082762 -115.150429 269 2102ft 0kts
13-Mar-18 18:38 36.082762 -115.150429 269 2102ft 0kts
13-Mar-18 18:39 36.082546 -115.150239 330 2102ft 2kts
13-Mar-18 18:40 36.082098 -115.149969 290 2102ft 1kts
13-Mar-18 18:41 36.082164 -115.149777 224 2101ft 0kts
13-Mar-18 18:42 36.082164 -115.149777 224 2101ft 0kts
13-Mar-18 18:43 36.082164 -115.149777 224 2101ft 0kts
13-Mar-18 18:44 36.081610 -115.150468 226 2106ft 5kts
13-Mar-18 18:45 36.080652 -115.151128 179 2110ft 0kts
13-Mar-18 18:46 36.080652 -115.151128 179 2110ft 0kts
13-Mar-18 18:47 36.079439 -115.151098 179 2113ft 12kts
13-Mar-18 18:48 36.078493 -115.146718 94 2097ft 27kts
13-Mar-18 18:49 36.078286 -115.134819 89 2061ft 40kts
13-Mar-18 18:50 36.078257 -115.122813 108 2036ft 15kts
13-Mar-18 18:51 36.077433 -115.121449 140 2036ft 0kts
13-Mar-18 18:52 36.077433 -115.121449 140 2036ft 0kts
13-Mar-18 18:53 36.076414 -115.122427 266 2038ft 5kts
13-Mar-18 18:54 36.076675 -115.145305 271 2194ft 172kts
13-Mar-18 18:55 36.077031 -115.213471 266 4452ft 246kts
13-Mar-18 18:56 36.033212 -115.274430 201 6982ft 263kts
13-Mar-18 18:57 35.965612 -115.308027 223 7565ft 268kts
13-Mar-18 18:58 35.913159 -115.372096 225 9033ft 268kts
13-Mar-18 18:59 35.886786 -115.452645 268 11018ft 295kts
13-Mar-18 19:00 35.888686 -115.557160 269 11044ft 305kts
13-Mar-18 19:01 35.890668 -115.658757 267 11066ft 307kts
13-Mar-18 19:02 35.892426 -115.762871 266 14585ft 312kts
13-Mar-18 19:03 35.894181 -115.872104 266 17565ft 327kts
13-Mar-18 19:04 35.908114 -115.983979 296 20293ft 356kts
13-Mar-18 19:05 35.982203 -116.071263 310 22769ft 375kts
13-Mar-18 19:06 36.059201 -116.159166 309 25019ft 381kts
13-Mar-18 19:07 36.135686 -116.247454 309 27030ft 386kts
13-Mar-18 19:08 36.214207 -116.338391 308 28892ft 390kts
13-Mar-18 19:09 36.293247 -116.430186 307 30717ft 390kts
13-Mar-18 19:10 36.371705 -116.521607 306 32447ft 387kts
13-Mar-18 19:11 36.449441 -116.612421 306 33922ft 385kts
13-Mar-18 19:12 36.527870 -116.704658 306 33986ft 418kts
13-Mar-18 19:13 36.623260 -116.794404 319 33975ft 443kts
13-Mar-18 19:14 36.728143 -116.872674 318 33976ft 441kts
13-Mar-18 19:15 36.832992 -116.952502 318 33976ft 443kts
13-Mar-18 19:16 36.938165 -117.032905 318 33976ft 443kts
13-Mar-18 19:17 37.042755 -117.113150 318 33975ft 443kts
13-Mar-18 19:18 37.145167 -117.191980 318 33957ft 443kts
13-Mar-18 19:19 37.250028 -117.272971 318 33919ft 446kts
13-Mar-18 19:20 37.358826 -117.350303 323 33955ft 455kts
13-Mar-18 19:21 37.471528 -117.422507 323 33957ft 454kts
13-Mar-18 19:22 37.583723 -117.495411 323 33957ft 454kts
13-Mar-18 19:23 37.695551 -117.568365 323 33957ft 454kts
13-Mar-18 19:24 37.807996 -117.642032 323 33959ft 459kts
13-Mar-18 19:25 37.916918 -117.713546 322 33973ft 458kts
13-Mar-18 19:26 38.026317 -117.793289 309 33990ft 441kts
13-Mar-18 19:27 38.116323 -117.893534 309 33960ft 440kts
13-Mar-18 19:28 38.208645 -117.995688 309 33877ft 442kts
13-Mar-18 19:29 38.301059 -118.097746 310 33805ft 450kts
13-Mar-18 19:30 38.395777 -118.202041 310 33804ft 449kts
13-Mar-18 19:31 38.489425 -118.305126 309 33803ft 447kts
13-Mar-18 19:32 38.583580 -118.408755 310 33804ft 448kts
13-Mar-18 19:33 38.677729 -118.512241 310 33804ft 448kts
13-Mar-18 19:34 38.772150 -118.615966 310 33803ft 453kts
13-Mar-18 19:35 38.865210 -118.718057 310 33815ft 455kts
13-Mar-18 19:36 38.961335 -118.823419 310 33819ft 456kts
13-Mar-18 19:37 39.057620 -118.928860 310 33844ft 456kts
13-Mar-18 19:38 39.151425 -119.031481 310 33829ft 456kts
13-Mar-18 19:39 39.256350 -119.123489 334 33841ft 485kts
13-Mar-18 19:40 39.386513 -119.174362 335 33831ft 489kts
13-Mar-18 19:41 39.515838 -119.226840 335 33833ft 489kts
13-Mar-18 19:42 39.644946 -119.279752 335 33887ft 491kts
13-Mar-18 19:43 39.774955 -119.333278 335 33890ft 492kts
13-Mar-18 19:44 39.903405 -119.386371 336 33939ft 494kts
13-Mar-18 19:45 40.032191 -119.439850 336 33940ft 494kts
13-Mar-18 19:46 40.157338 -119.492050 336 33927ft 494kts
13-Mar-18 19:47 40.286990 -119.546413 336 33928ft 497kts
13-Mar-18 19:48 40.423626 -119.603889 336 33930ft 498kts
13-Mar-18 19:49 40.551863 -119.658092 336 33940ft 498kts
13-Mar-18 19:50 40.681598 -119.713101 336 33940ft 497kts
13-Mar-18 19:51 40.813645 -119.769470 336 33944ft 505kts
13-Mar-18 19:52 40.946830 -119.826464 336 33944ft 504kts
13-Mar-18 19:53 41.079860 -119.883691 336 33899ft 504kts
13-Mar-18 19:54 41.207992 -119.939069 336 33884ft 505kts
13-Mar-18 19:55 41.340986 -119.996819 337 33887ft 507kts
13-Mar-18 19:56 41.474627 -120.055044 337 33889ft 506kts
13-Mar-18 19:57 41.608104 -120.113478 337 33891ft 506kts
13-Mar-18 19:58 41.741317 -120.172047 337 33893ft 506kts
13-Mar-18 19:59 41.875174 -120.231159 338 33877ft 508kts
13-Mar-18 20:00 42.009061 -120.290521 338 33882ft 509kts
13-Mar-18 20:01 42.139473 -120.348599 338 33864ft 509kts
13-Mar-18 20:02 42.273555 -120.408565 338 33866ft 510kts
13-Mar-18 20:03 42.408153 -120.469007 338 33869ft 510kts
13-Mar-18 20:04 42.540575 -120.534539 332 33875ft 507kts
13-Mar-18 20:05 42.668967 -120.613250 332 33873ft 507kts
13-Mar-18 20:06 42.793354 -120.688582 332 33877ft 511kts
13-Mar-18 20:07 42.922915 -120.767342 332 33877ft 513kts
13-Mar-18 20:08 43.053006 -120.846930 332 33881ft 513kts
13-Mar-18 20:09 43.182753 -120.910174 355 33873ft 520kts
13-Mar-18 20:10 43.321984 -120.949247 332 33873ft 516kts
13-Mar-18 20:11 43.451180 -121.032709 331 33873ft 515kts
13-Mar-18 20:12 43.580770 -121.117113 331 33875ft 515kts
13-Mar-18 20:13 43.709654 -121.201482 331 33877ft 515kts
13-Mar-18 20:14 43.838872 -121.286530 331 33881ft 519kts
13-Mar-18 20:15 43.968906 -121.372527 331 33882ft 519kts
13-Mar-18 20:16 44.098719 -121.458816 331 33885ft 519kts
13-Mar-18 20:17 44.223263 -121.542014 331 33869ft 519kts
13-Mar-18 20:18 44.353077 -121.629191 332 33854ft 519kts
13-Mar-18 20:19 44.487009 -121.719357 331 33853ft 519kts
13-Mar-18 20:20 44.617506 -121.807570 331 33857ft 521kts
13-Mar-18 20:21 44.747689 -121.896050 331 33860ft 521kts
13-Mar-18 20:22 44.855962 -121.970030 332 33916ft 521kts
13-Mar-18 20:23 45.007066 -122.073800 332 33919ft 520kts
13-Mar-18 20:24 45.111890 -122.146170 332 33912ft 520kts
13-Mar-18 20:25 45.238385 -122.233890 332 33906ft 521kts
13-Mar-18 20:26 45.383095 -122.334824 332 32684ft 481kts
13-Mar-18 20:27 45.484184 -122.405754 332 31876ft 493kts
13-Mar-18 20:28 45.607586 -122.492625 333 30909ft 497kts
13-Mar-18 20:29 45.731822 -122.580324 333 29967ft 502kts
13-Mar-18 20:30 45.866462 -122.622079 354 29052ft 498kts
13-Mar-18 20:31 46.000000 -122.654127 352 28154ft 494kts
13-Mar-18 20:32 46.130005 -122.685163 355 27196ft 488kts
13-Mar-18 20:33 46.261769 -122.710608 354 25342ft 470kts
13-Mar-18 20:34 46.387776 -122.725524 2 23377ft 450kts
13-Mar-18 20:35 46.510078 -122.729057 1 21463ft 432kts
13-Mar-18 20:36 46.627669 -122.733237 0 19604ft 414kts
13-Mar-18 20:37 46.740071 -122.737312 0 17820ft 398kts
13-Mar-18 20:38 46.833839 -122.680144 43 16056ft 362kts
13-Mar-18 20:39 46.911615 -122.591686 41 14270ft 348kts
13-Mar-18 20:40 46.995714 -122.535510 17 12477ft 327kts
13-Mar-18 20:41 47.080869 -122.499475 15 11127ft 317kts
13-Mar-18 20:42 47.164038 -122.484527 6 10107ft 312kts
13-Mar-18 20:43 47.249770 -122.470780 5 9437ft 306kts
13-Mar-18 20:44 47.331860 -122.458431 6 8085ft 285kts
13-Mar-18 20:45 47.407391 -122.454983 1 7311ft 267kts
13-Mar-18 20:46 47.478274 -122.456492 0 6387ft 264kts
13-Mar-18 20:47 47.544863 -122.459887 359 6013ft 237kts
13-Mar-18 20:48 47.611240 -122.464859 359 5889ft 244kts
13-Mar-18 20:49 47.680405 -122.470337 359 4514ft 245kts
13-Mar-18 20:50 47.737701 -122.452798 78 4031ft 193kts
13-Mar-18 20:51 47.735963 -122.375838 94 4017ft 187kts
13-Mar-18 20:52 47.709176 -122.319232 145 4020ft 189kts
13-Mar-18 20:53 47.658100 -122.308024 179 4019ft 195kts
13-Mar-18 20:54 47.603512 -122.309910 177 3162ft 188kts
13-Mar-18 20:55 47.552037 -122.310275 178 2159ft 180kts
13-Mar-18 20:56 47.503418 -122.310678 179 1241ft 166kts
13-Mar-18 20:57 47.461395 -122.311137 181 407ft 134kts
13-Mar-18 20:58 47.448493 -122.310763 159 399ft 22kts
13-Mar-18 20:59 47.444945 -122.306369 179 391ft 13kts
13-Mar-18 21:00 47.442243 -122.304274 121 383ft 0kts
13-Mar-18 21:01 47.442243 -122.304274 121 383ft 0kts
13-Mar-18 21:02 47.442243 -122.304274 121 383ft 0kts
13-Mar-18 21:03 47.442243 -122.304274 121 383ft 0kts
13-Mar-18 21:04 47.442243 -122.304274 121 383ft 0kts
13-Mar-18 21:05 47.442243 -122.304274 121 383ft 0kts
13-Mar-18 21:06 47.442243 -122.304274 121 383ft 0kts
13-Mar-18 21:07 47.442243 -122.304274 121 383ft 0kts
13-Mar-18 21:08 47.442243 -122.304274 121 383ft 0kts
13-Mar-18 21:09 47.442243 -122.304274 121 383ft 0kts
13-Mar-18 21:10 47.442243 -122.304274 121 383ft 0kts
13-Mar-18 21:11 47.442243 -122.304274 121 383ft 0kts
13-Mar-18 21:12 47.442243 -122.304274 121 383ft 0kts

Navigation Log

Ident Type
Flight plan parsing failed, navigation log unavailable